Time;durP1;ratioP1;P1;durP2;ratioP2;P2;SDS_P1;SDS_P2;PMS_P1;PMS_P2;Temp;Humidity;BMP_temperature;BMP_pressure;BME280_temperature;BME280_humidity;BME280_pressure;Samples;Min_cycle;Max_cycle;Signal;HPM_P1;HPM_P2
2022/12/02 00:01:05;;;;;;;11.87;5.23;;;7.00;90.00;;;;;;6213733;23;20174;-79
2022/12/02 00:03:36;;;;;;;9.43;4.83;;;7.10;90.10;;;;;;6215715;23;20233;-79
2022/12/02 00:06:05;;;;;;;10.50;5.23;;;7.10;90.10;;;;;;6215202;23;20155;-81
2022/12/02 00:08:35;;;;;;;9.03;4.43;;;7.10;90.00;;;;;;6214485;23;20178;-79
2022/12/02 00:11:18;;;;;;;11.23;4.83;;;7.20;90.10;;;;;;6215029;23;20155;-80
2022/12/02 00:13:47;;;;;;;8.97;4.10;;;7.20;90.00;;;;;;6212876;23;20492;-80
2022/12/02 00:16:21;;;;;;;10.67;4.97;;;7.30;89.70;;;;;;6215347;23;20179;-81
2022/12/02 00:18:50;;;;;;;9.60;4.33;;;7.30;89.60;;;;;;6216033;23;20154;-79
2022/12/02 00:21:19;;;;;;;8.30;4.10;;;7.30;89.40;;;;;;6215346;23;20233;-82
2022/12/02 00:23:48;;;;;;;9.10;4.43;;;7.30;89.70;;;;;;6214883;23;20272;-77
2022/12/02 00:26:17;;;;;;;8.47;4.33;;;7.30;89.30;;;;;;6215308;23;20202;-80
2022/12/02 00:28:45;;;;;;;9.50;4.33;;;7.30;88.90;;;;;;6215159;23;20178;-81
2022/12/02 00:31:13;;;;;;;8.27;4.17;;;7.30;88.40;;;;;;6214831;23;20693;-83
2022/12/02 00:33:43;;;;;;;8.07;4.03;;;7.20;88.60;;;;;;6215602;23;20249;-80
2022/12/02 00:36:11;;;;;;;10.97;4.60;;;7.30;89.00;;;;;;6214883;23;20205;-80
2022/12/02 00:38:40;;;;;;;8.93;3.83;;;7.30;89.30;;;;;;6214983;23;20213;-83
2022/12/02 00:41:08;;;;;;;7.90;4.10;;;7.40;89.40;;;;;;6213219;23;20178;-80
2022/12/02 00:46:34;;;;;;;6.17;3.87;;;7.40;89.00;;;;;;6213213;23;20160;-82
2022/12/02 00:49:06;;;;;;;7.83;3.60;;;7.30;89.10;;;;;;6213456;23;20169;-80
2022/12/02 00:51:36;;;;;;;9.10;4.73;;;7.30;89.10;;;;;;6213874;23;20167;-83
2022/12/02 00:54:04;;;;;;;7.33;4.17;;;7.30;88.70;;;;;;6211302;23;20241;-79
2022/12/02 00:56:33;;;;;;;8.07;4.20;;;7.30;88.70;;;;;;6213988;23;20232;-80
2022/12/02 00:59:02;;;;;;;9.50;4.77;;;7.20;88.90;;;;;;6213996;23;20629;-82
2022/12/02 01:01:32;;;;;;;7.67;4.07;;;7.20;88.50;;;;;;6213966;23;20186;-82
2022/12/02 01:04:00;;;;;;;7.87;3.93;;;7.20;88.70;;;;;;6212527;23;20198;-82
2022/12/02 01:06:30;;;;;;;11.33;4.70;;;7.20;88.80;;;;;;6214559;23;20197;-81
2022/12/02 01:08:58;;;;;;;10.67;4.40;;;7.10;89.00;;;;;;6214315;23;20249;-81
2022/12/02 01:11:27;;;;;;;11.53;4.47;;;7.00;89.10;;;;;;6212689;23;20227;-80
2022/12/02 01:13:55;;;;;;;9.17;4.20;;;7.00;89.20;;;;;;6212938;23;20226;-83
2022/12/02 01:16:23;;;;;;;9.17;4.23;;;7.00;89.40;;;;;;6213803;23;20174;-82
2022/12/02 01:18:52;;;;;;;8.03;4.37;;;6.90;89.50;;;;;;6212746;23;20180;-80
2022/12/02 01:21:22;;;;;;;7.23;4.30;;;6.90;89.40;;;;;;6214689;23;20228;-81
2022/12/02 01:23:51;;;;;;;6.60;3.77;;;6.90;89.60;;;;;;6213682;23;20198;-80
2022/12/02 01:26:20;;;;;;;9.10;4.43;;;6.90;89.90;;;;;;6212042;23;20199;-81
2022/12/02 01:28:48;;;;;;;8.03;4.27;;;6.90;90.00;;;;;;6212694;23;20232;-81
2022/12/02 01:31:16;;;;;;;8.63;4.17;;;6.90;90.00;;;;;;6214297;23;20185;-80
2022/12/02 01:33:45;;;;;;;8.00;3.70;;;7.00;90.00;;;;;;6213126;23;20339;-80
2022/12/02 01:36:13;;;;;;;8.67;4.10;;;7.10;90.10;;;;;;6214921;23;20627;-83
2022/12/02 01:38:41;;;;;;;9.17;4.53;;;7.00;89.80;;;;;;6213224;23;20553;-80
2022/12/02 01:41:11;;;;;;;8.13;4.27;;;7.00;89.80;;;;;;6214282;23;20178;-81
2022/12/02 01:43:39;;;;;;;9.70;4.93;;;7.10;90.00;;;;;;6213144;23;20569;-81
2022/12/02 01:46:08;;;;;;;9.57;3.77;;;7.10;90.00;;;;;;6211973;23;20182;-81
2022/12/02 01:48:37;;;;;;;9.57;4.60;;;7.20;90.00;;;;;;6211707;23;20643;-81
2022/12/02 01:51:07;;;;;;;10.50;4.13;;;7.20;90.00;;;;;;6213915;23;20178;-81
2022/12/02 01:53:36;;;;;;;7.40;4.07;;;7.20;89.60;;;;;;6212797;23;20224;-81
2022/12/02 01:56:05;;;;;;;11.93;4.77;;;7.20;89.40;;;;;;6213265;23;20178;-80
2022/12/02 01:58:35;;;;;;;9.37;4.63;;;7.20;89.20;;;;;;6211301;23;20202;-80
2022/12/02 02:01:04;;;;;;;8.20;4.50;;;7.20;89.10;;;;;;6212582;23;20161;-81
2022/12/02 02:03:32;;;;;;;7.93;4.50;;;7.20;89.00;;;;;;6212605;23;20195;-81
2022/12/02 02:06:01;;;;;;;8.40;4.30;;;7.20;89.10;;;;;;6215251;23;20175;-81
2022/12/02 02:08:29;;;;;;;7.73;3.73;;;7.30;89.10;;;;;;6214322;23;20179;-81
2022/12/02 02:10:57;;;;;;;9.23;4.63;;;7.30;89.00;;;;;;6213115;23;20163;-81
2022/12/02 02:13:26;;;;;;;7.67;4.00;;;7.40;89.00;;;;;;6213429;23;20178;-82
2022/12/02 02:15:56;;;;;;;8.77;4.17;;;7.40;88.70;;;;;;6213147;23;20178;-81
2022/12/02 02:18:24;;;;;;;7.27;3.50;;;7.50;88.60;;;;;;6213714;23;20177;-80
2022/12/02 02:20:55;;;;;;;10.03;4.60;;;7.40;87.90;;;;;;6213955;23;20181;-80
2022/12/02 02:23:26;;;;;;;7.73;3.87;;;7.40;87.70;;;;;;6213772;23;20206;-79
2022/12/02 02:25:58;;;;;;;6.93;3.80;;;7.40;88.00;;;;;;6213722;23;20199;-81
2022/12/02 02:28:26;;;;;;;8.80;4.33;;;7.30;87.80;;;;;;6214693;23;20228;-81
2022/12/02 02:30:57;;;;;;;9.03;4.00;;;7.30;87.80;;;;;;6213722;23;20620;-80
2022/12/02 02:33:28;;;;;;;10.67;4.70;;;7.30;88.00;;;;;;6214884;23;20611;-81
2022/12/02 02:35:57;;;;;;;7.50;3.80;;;7.30;88.00;;;;;;6215005;23;20214;-80
2022/12/02 02:38:28;;;;;;;8.80;4.10;;;7.40;88.20;;;;;;6209883;23;20625;-79
2022/12/02 02:41:00;;;;;;;8.77;4.37;;;7.40;87.90;;;;;;6213357;23;20209;-81
2022/12/02 02:43:30;;;;;;;9.93;4.50;;;7.40;88.00;;;;;;6210299;23;20195;-79
2022/12/02 02:45:59;;;;;;;9.10;4.37;;;7.40;87.80;;;;;;6210528;23;20179;-77
2022/12/02 02:48:29;;;;;;;10.97;4.40;;;7.40;87.40;;;;;;6212683;23;20192;-80
2022/12/02 02:50:57;;;;;;;8.03;4.00;;;7.40;87.40;;;;;;6212966;23;20222;-80
2022/12/02 02:53:27;;;;;;;8.40;3.97;;;7.40;87.40;;;;;;6211370;23;20198;-81
2022/12/02 02:55:56;;;;;;;11.13;4.97;;;7.40;87.20;;;;;;6213557;23;20178;-81
2022/12/02 02:58:27;;;;;;;9.30;4.77;;;7.40;87.20;;;;;;6215127;23;20245;-82
2022/12/02 03:00:59;;;;;;;8.73;4.50;;;7.30;86.50;;;;;;6213950;23;20159;-81
2022/12/02 03:03:31;;;;;;;11.67;5.13;;;7.30;86.90;;;;;;6215332;23;20186;-81
2022/12/02 03:06:01;;;;;;;10.40;4.80;;;7.20;87.20;;;;;;6213509;23;20163;-80
2022/12/02 03:08:32;;;;;;;9.13;4.67;;;7.20;87.30;;;;;;6214647;23;20179;-77
2022/12/02 03:11:02;;;;;;;9.47;4.93;;;7.30;87.50;;;;;;6214650;23;20174;-81
2022/12/02 03:13:33;;;;;;;10.73;5.23;;;7.20;87.30;;;;;;6214528;23;20224;-80
2022/12/02 03:16:03;;;;;;;11.17;5.53;;;7.20;87.50;;;;;;6214089;23;20213;-81
2022/12/02 03:18:31;;;;;;;8.17;4.87;;;7.10;87.30;;;;;;6216206;23;20166;-81
2022/12/02 03:21:00;;;;;;;12.80;5.40;;;7.20;87.50;;;;;;6216152;23;20658;-80
2022/12/02 03:23:32;;;;;;;10.10;4.53;;;7.20;87.70;;;;;;6215974;23;20589;-82
2022/12/02 03:26:01;;;;;;;12.83;5.50;;;7.20;87.80;;;;;;6216536;23;20671;-81
2022/12/02 03:28:30;;;;;;;8.70;4.43;;;7.20;87.90;;;;;;6215641;23;20174;-80
2022/12/02 03:30:59;;;;;;;9.27;4.43;;;7.20;87.90;;;;;;6215631;23;20178;-81
2022/12/02 03:33:28;;;;;;;11.20;5.20;;;7.20;88.00;;;;;;6213586;23;20225;-80
2022/12/02 03:35:57;;;;;;;9.17;4.57;;;7.20;87.90;;;;;;6215418;23;20178;-82
2022/12/02 03:38:26;;;;;;;8.40;4.60;;;7.20;87.90;;;;;;6214056;23;20544;-81
2022/12/02 03:40:55;;;;;;;11.67;4.90;;;7.20;87.80;;;;;;6215396;23;20171;-80
2022/12/02 03:43:27;;;;;;;12.10;5.10;;;7.20;87.70;;;;;;6138050;23;20770;-81
2022/12/02 03:45:56;;;;;;;10.37;4.47;;;7.20;87.60;;;;;;6214022;23;20517;-80
2022/12/02 03:48:25;;;;;;;10.27;5.00;;;7.30;87.70;;;;;;6213029;23;20178;-80
2022/12/02 03:50:54;;;;;;;8.37;4.10;;;7.30;87.70;;;;;;6214491;23;20175;-82
2022/12/02 03:53:23;;;;;;;9.17;4.20;;;7.30;87.80;;;;;;6212423;23;20175;-80
2022/12/02 03:55:51;;;;;;;10.37;4.80;;;7.30;87.40;;;;;;6215157;23;20201;-81
2022/12/02 03:58:32;;;;;;;10.33;4.83;;;7.30;87.40;;;;;;6215317;23;20506;-82
2022/12/02 04:01:00;;;;;;;9.87;4.87;;;7.40;87.50;;;;;;6214108;23;20225;-81
2022/12/02 04:03:29;;;;;;;11.70;4.47;;;7.40;87.60;;;;;;6213638;23;20170;-81
2022/12/02 04:05:57;;;;;;;10.60;4.60;;;7.40;87.70;;;;;;6215065;23;20248;-82
2022/12/02 04:08:26;;;;;;;9.43;4.43;;;7.40;87.70;;;;;;6215001;23;20175;-80
2022/12/02 04:10:54;;;;;;;10.33;4.67;;;7.40;87.80;;;;;;6214875;23;20225;-80
2022/12/02 04:13:24;;;;;;;9.60;4.60;;;7.50;87.70;;;;;;6214648;23;20667;-81
2022/12/02 04:15:52;;;;;;;9.53;4.17;;;7.40;87.40;;;;;;6213554;23;20231;-80
2022/12/02 04:18:20;;;;;;;8.80;4.23;;;7.50;87.70;;;;;;6214377;23;20238;-80
2022/12/02 04:20:49;;;;;;;10.30;5.00;;;7.50;87.80;;;;;;6215371;23;20197;-81
2022/12/02 04:23:17;;;;;;;13.20;5.57;;;7.50;87.80;;;;;;6212980;23;20175;-80
2022/12/02 04:25:45;;;;;;;10.00;4.67;;;7.50;87.80;;;;;;6214345;23;20198;-80
2022/12/02 04:28:13;;;;;;;8.17;4.43;;;7.50;87.80;;;;;;6214819;23;20240;-81
2022/12/02 04:30:43;;;;;;;10.47;5.13;;;7.50;87.80;;;;;;6214878;23;20229;-81
2022/12/02 04:33:11;;;;;;;9.63;4.40;;;7.50;88.70;;;;;;6213714;23;20206;-82
2022/12/02 04:35:40;;;;;;;8.53;4.57;;;7.50;88.00;;;;;;6214767;23;20620;-80
2022/12/02 04:38:08;;;;;;;8.83;4.87;;;7.50;87.80;;;;;;6214185;23;20175;-81
2022/12/02 04:40:39;;;;;;;9.87;4.67;;;7.50;87.80;;;;;;6211317;23;20159;-78
2022/12/02 04:43:08;;;;;;;8.43;4.67;;;7.50;87.60;;;;;;6213477;23;20178;-79
2022/12/02 04:45:36;;;;;;;9.77;4.67;;;7.50;87.60;;;;;;6213481;23;20189;-80
2022/12/02 04:48:06;;;;;;;10.87;5.40;;;7.50;87.70;;;;;;6213233;23;20225;-81
2022/12/02 04:50:34;;;;;;;10.37;5.47;;;7.50;88.50;;;;;;6216255;23;20182;-80
2022/12/02 04:53:03;;;;;;;11.90;5.33;;;7.60;87.80;;;;;;6213671;23;20179;-80
2022/12/02 04:55:31;;;;;;;9.07;4.77;;;7.50;87.70;;;;;;6214442;23;20175;-81
2022/12/02 04:57:59;;;;;;;10.00;4.80;;;7.50;87.80;;;;;;6211020;23;20627;-81
2022/12/02 05:00:28;;;;;;;11.80;5.53;;;7.50;87.80;;;;;;6214141;23;20272;-80
2022/12/02 05:02:56;;;;;;;12.37;5.57;;;7.50;87.70;;;;;;6212355;23;20232;-79
2022/12/02 05:05:26;;;;;;;10.80;5.20;;;7.50;87.60;;;;;;6211493;23;20301;-81
2022/12/02 05:07:54;;;;;;;11.57;5.57;;;7.50;87.70;;;;;;6214564;23;20171;-81
2022/12/02 05:10:23;;;;;;;9.10;4.73;;;7.50;87.30;;;;;;6212800;23;20230;-79
2022/12/02 05:12:51;;;;;;;11.10;4.80;;;7.50;87.30;;;;;;6211545;23;20167;-80
2022/12/02 05:15:19;;;;;;;11.53;5.10;;;7.40;87.40;;;;;;6214781;23;20174;-82
2022/12/02 05:17:48;;;;;;;12.27;5.90;;;7.50;87.40;;;;;;6212785;23;20179;-81
2022/12/02 05:20:17;;;;;;;12.50;6.70;;;7.40;87.30;;;;;;6213653;23;20178;-80
2022/12/02 05:22:47;;;;;;;11.97;5.90;;;7.40;87.40;;;;;;6212897;23;20217;-81
2022/12/02 05:25:15;;;;;;;12.20;6.00;;;7.40;87.50;;;;;;6214373;23;20256;-79
2022/12/02 05:27:43;;;;;;;13.00;5.97;;;7.40;87.60;;;;;;6213911;23;20553;-79
2022/12/02 05:30:13;;;;;;;12.60;6.50;;;7.40;87.50;;;;;;6213659;23;20170;-80
2022/12/02 05:32:41;;;;;;;12.93;6.00;;;7.40;87.70;;;;;;6213490;23;20244;-80
2022/12/02 05:35:10;;;;;;;12.27;6.13;;;7.40;87.80;;;;;;6213635;23;20201;-78
2022/12/02 05:37:38;;;;;;;11.57;5.90;;;7.30;87.80;;;;;;6213822;23;20241;-79
2022/12/02 05:40:10;;;;;;;10.97;5.70;;;7.40;88.00;;;;;;6214109;23;20175;-82
2022/12/02 05:42:39;;;;;;;12.37;6.23;;;7.30;88.00;;;;;;6209344;23;20623;-80
2022/12/02 05:45:15;;;;;;;15.43;6.43;;;7.40;88.10;;;;;;6214729;23;20268;-81
2022/12/02 05:47:44;;;;;;;15.13;6.20;;;7.30;88.10;;;;;;6214339;23;20166;-80
2022/12/02 05:50:13;;;;;;;13.50;6.73;;;7.40;88.20;;;;;;6211580;23;20185;-80
2022/12/02 05:52:43;;;;;;;16.90;5.77;;;7.40;88.10;;;;;;6213760;23;20176;-80
2022/12/02 05:55:18;;;;;;;11.53;5.77;;;7.40;88.10;;;;;;6212851;23;20232;-79
2022/12/02 05:57:47;;;;;;;13.17;5.43;;;7.40;87.80;;;;;;6215024;23;20162;-79
2022/12/02 06:00:18;;;;;;;13.23;6.40;;;7.40;87.90;;;;;;6215748;23;20615;-81
2022/12/02 06:02:49;;;;;;;14.40;6.80;;;7.50;87.90;;;;;;6212481;23;20155;-79
2022/12/02 06:05:20;;;;;;;14.83;7.20;;;7.40;87.50;;;;;;6214627;23;20773;-80
2022/12/02 06:07:52;;;;;;;16.60;7.67;;;7.40;87.70;;;;;;6213412;23;20167;-81
2022/12/02 06:10:26;;;;;;;15.33;7.27;;;7.40;87.80;;;;;;6212025;23;20677;-80
2022/12/02 06:12:58;;;;;;;15.20;7.70;;;7.40;87.90;;;;;;6212426;23;20599;-81
2022/12/02 06:15:34;;;;;;;16.10;7.73;;;7.50;88.10;;;;;;6211369;23;20143;-81
2022/12/02 06:18:03;;;;;;;14.47;7.03;;;7.50;88.10;;;;;;6211360;23;20166;-79
2022/12/02 06:20:34;;;;;;;15.37;7.90;;;7.50;88.60;;;;;;6213416;23;20506;-81
2022/12/02 06:23:03;;;;;;;17.70;7.40;;;7.50;88.60;;;;;;6211473;23;20584;-81
2022/12/02 06:25:33;;;;;;;19.47;7.20;;;7.50;88.50;;;;;;6213143;23;20689;-82
2022/12/02 06:28:10;;;;;;;14.87;6.97;;;7.50;88.50;;;;;;6211554;23;20244;-81
2022/12/02 06:30:40;;;;;;;16.37;7.83;;;7.60;88.70;;;;;;6215158;23;20162;-80
2022/12/02 06:33:17;;;;;;;15.20;7.23;;;7.50;88.30;;;;;;6216024;23;20174;-81
2022/12/02 06:35:50;;;;;;;17.93;7.97;;;7.50;88.40;;;;;;6216821;23;20233;-82
2022/12/02 06:38:26;;;;;;;14.60;7.63;;;7.50;88.30;;;;;;6215153;23;20181;-81
2022/12/02 06:40:57;;;;;;;16.13;7.97;;;7.50;88.10;;;;;;6215119;23;20163;-81
2022/12/02 06:43:27;;;;;;;17.70;7.90;;;7.50;88.20;;;;;;6215094;23;20167;-82
2022/12/02 06:45:55;;;;;;;18.30;8.30;;;7.50;88.30;;;;;;6214280;23;20249;-80
2022/12/02 06:48:31;;;;;;;14.83;7.23;;;7.50;88.40;;;;;;6214425;23;20234;-81
2022/12/02 06:51:11;;;;;;;14.63;7.70;;;7.60;88.60;;;;;;6216041;23;20159;-81
2022/12/02 06:53:40;;;;;;;14.03;7.20;;;7.60;88.60;;;;;;6215317;23;20652;-81
2022/12/02 06:56:20;;;;;;;17.57;7.37;;;7.60;88.40;;;;;;6215703;23;20179;-80
2022/12/02 06:58:55;;;;;;;18.13;7.30;;;7.60;88.20;;;;;;6213272;23;20171;-79
2022/12/02 07:01:31;;;;;;;13.40;7.03;;;7.70;88.30;;;;;;6216929;23;20600;-80
2022/12/02 07:04:23;;;;;;;15.43;7.33;;;7.70;88.10;;;;;;6213095;23;20623;-80
2022/12/02 07:06:54;;;;;;;18.53;7.03;;;7.80;88.10;;;;;;6213840;23;20186;-80
2022/12/02 07:09:30;;;;;;;19.57;8.03;;;7.80;87.80;;;;;;6214040;23;20166;-81
2022/12/02 07:12:00;;;;;;;17.90;8.50;;;7.80;88.00;;;;;;6215840;23;20166;-81
2022/12/02 07:14:36;;;;;;;20.50;7.37;;;7.80;87.90;;;;;;6213420;23;20159;-79
2022/12/02 07:17:14;;;;;;;18.53;8.77;;;7.80;87.90;;;;;;6213030;23;20597;-80
2022/12/02 07:19:45;;;;;;;16.83;8.37;;;7.80;87.30;;;;;;6215024;23;20394;-81
2022/12/02 07:22:16;;;;;;;17.00;8.47;;;7.80;87.20;;;;;;6216817;23;20152;-80
2022/12/02 07:24:51;;;;;;;16.93;8.30;;;7.90;87.20;;;;;;6216483;23;20217;-81
2022/12/02 07:27:25;;;;;;;21.27;8.83;;;7.90;87.40;;;;;;6214448;23;20194;-80
2022/12/02 07:29:55;;;;;;;18.37;8.47;;;7.90;87.30;;;;;;6215600;23;20616;-79
2022/12/02 07:32:24;;;;;;;15.83;8.27;;;7.90;87.20;;;;;;6213079;23;20159;-80
2022/12/02 07:34:52;;;;;;;18.27;8.20;;;7.90;87.20;;;;;;6215940;23;20175;-79
2022/12/02 07:37:21;;;;;;;15.87;7.50;;;7.90;87.20;;;;;;6215633;23;20175;-80
2022/12/02 07:39:50;;;;;;;17.67;8.43;;;7.90;86.90;;;;;;6214587;23;20167;-81
2022/12/02 07:42:18;;;;;;;17.03;7.60;;;7.90;87.10;;;;;;6214672;23;20175;-77
2022/12/02 07:44:48;;;;;;;17.23;7.90;;;7.90;87.20;;;;;;6213483;23;20175;-80
2022/12/02 07:47:16;;;;;;;20.93;9.43;;;7.90;87.30;;;;;;6214135;23;20226;-81
2022/12/02 07:49:45;;;;;;;16.70;8.23;;;7.90;87.20;;;;;;6214917;23;20179;-80
2022/12/02 07:52:13;;;;;;;18.30;8.83;;;8.00;87.30;;;;;;6216424;23;20175;-80
2022/12/02 07:54:42;;;;;;;18.37;9.20;;;8.00;87.20;;;;;;6215706;23;20218;-80
2022/12/02 07:57:10;;;;;;;18.00;8.80;;;8.00;87.20;;;;;;6213947;23;20388;-81
2022/12/02 07:59:38;;;;;;;21.80;8.83;;;8.10;87.40;;;;;;6212335;23;20179;-80
2022/12/02 08:02:08;;;;;;;17.67;8.73;;;8.10;87.40;;;;;;6215695;23;20226;-81
2022/12/02 08:04:36;;;;;;;17.67;8.50;;;8.10;86.90;;;;;;6214605;23;20175;-82
2022/12/02 08:07:04;;;;;;;16.27;8.10;;;8.20;87.10;;;;;;6215449;23;20195;-81
2022/12/02 08:09:33;;;;;;;17.60;8.67;;;8.20;86.70;;;;;;6214826;23;20229;-81
2022/12/02 08:12:01;;;;;;;16.83;8.13;;;8.30;86.70;;;;;;6213473;23;20176;-79
2022/12/02 08:14:29;;;;;;;20.43;9.30;;;8.30;86.50;;;;;;6214995;23;20181;-78
2022/12/02 08:16:58;;;;;;;14.47;8.30;;;8.20;86.00;;;;;;6214296;23;20202;-82
2022/12/02 08:19:27;;;;;;;17.67;8.27;;;8.30;86.10;;;;;;6215031;23;20222;-80
2022/12/02 08:21:56;;;;;;;21.42;9.95;;;8.30;86.30;;;;;;6214958;23;20379;-79
2022/12/02 08:24:24;;;;;;;19.77;8.70;;;8.30;86.80;;;;;;6215672;23;20241;-79
2022/12/02 08:26:52;;;;;;;21.97;9.23;;;8.40;86.80;;;;;;6215894;23;20657;-79
2022/12/02 08:29:20;;;;;;;19.50;8.23;;;8.40;86.30;;;;;;6215970;23;20197;-77
2022/12/02 08:31:49;;;;;;;20.37;8.37;;;8.40;86.20;;;;;;6215445;23;20175;-79
2022/12/02 08:34:17;;;;;;;19.57;9.03;;;8.50;86.10;;;;;;6215461;23;20695;-80
2022/12/02 08:36:47;;;;;;;13.33;7.97;;;8.60;86.20;;;;;;6215663;23;20171;-79
2022/12/02 08:39:15;;;;;;;17.10;8.30;;;8.60;85.50;;;;;;6215383;23;20183;-79
2022/12/02 08:41:44;;;;;;;15.73;8.30;;;8.60;84.80;;;;;;6216363;23;20183;-79
2022/12/02 08:44:12;;;;;;;15.67;8.63;;;8.60;85.20;;;;;;6215981;23;20485;-78
2022/12/02 08:46:40;;;;;;;16.13;8.57;;;8.60;85.20;;;;;;6214299;23;20186;-79
2022/12/02 08:49:09;;;;;;;21.87;9.17;;;8.70;85.30;;;;;;6216237;23;20246;-79
2022/12/02 08:51:37;;;;;;;18.03;8.13;;;8.70;85.40;;;;;;6215803;23;20167;-79
2022/12/02 08:54:07;;;;;;;18.60;8.10;;;8.70;85.40;;;;;;6214650;23;20179;-79
2022/12/02 08:56:35;;;;;;;18.13;8.17;;;8.70;85.00;;;;;;6214294;23;20244;-78
2022/12/02 08:59:04;;;;;;;16.37;7.97;;;8.70;84.90;;;;;;6215775;23;20197;-79
2022/12/02 09:01:32;;;;;;;18.57;8.63;;;8.70;84.70;;;;;;6216160;23;20476;-77
2022/12/02 09:04:00;;;;;;;17.67;8.37;;;8.80;85.00;;;;;;6214792;23;20171;-78
2022/12/02 09:06:29;;;;;;;19.27;9.20;;;8.80;84.50;;;;;;6215425;23;20191;-77
2022/12/02 09:09:03;;;;;;;18.10;8.83;;;8.90;84.80;;;;;;6214548;23;20167;-79
2022/12/02 09:11:33;;;;;;;19.07;8.00;;;9.00;84.60;;;;;;6214662;23;20253;-79
2022/12/02 09:14:02;;;;;;;13.70;7.77;;;9.00;84.70;;;;;;6216036;23;20171;-79
2022/12/02 09:16:30;;;;;;;19.77;8.97;;;9.10;84.70;;;;;;6215460;23;20171;-78
2022/12/02 09:18:58;;;;;;;18.37;8.40;;;9.20;84.60;;;;;;6215615;23;20575;-79
2022/12/02 09:21:27;;;;;;;17.27;8.03;;;9.20;84.10;;;;;;6215246;23;20175;-81
2022/12/02 09:23:55;;;;;;;21.07;8.57;;;9.20;83.90;;;;;;6215133;23;20229;-79
2022/12/02 09:26:23;;;;;;;17.33;7.80;;;9.20;83.60;;;;;;6214886;23;20203;-79
2022/12/02 09:28:53;;;;;;;17.87;8.80;;;9.30;83.80;;;;;;6215759;23;20175;-80
2022/12/02 09:31:21;;;;;;;14.10;8.17;;;9.30;83.80;;;;;;6215491;23;20182;-77
2022/12/02 09:33:50;;;;;;;14.37;7.60;;;9.30;83.60;;;;;;6214328;23;20629;-79
2022/12/02 09:36:18;;;;;;;22.93;9.10;;;9.40;83.50;;;;;;6214494;23;20233;-78
2022/12/02 09:38:46;;;;;;;18.00;8.83;;;9.40;83.00;;;;;;6214754;23;20667;-79
2022/12/02 09:41:15;;;;;;;18.37;8.90;;;9.40;83.00;;;;;;6214961;23;20175;-76
2022/12/02 09:43:43;;;;;;;16.53;8.40;;;9.40;83.00;;;;;;6215769;23;20175;-80
2022/12/02 09:46:13;;;;;;;17.20;8.30;;;9.40;83.20;;;;;;6215805;23;20175;-78
2022/12/02 09:48:46;;;;;;;16.47;8.33;;;9.50;83.30;;;;;;6212672;23;20155;-79
2022/12/02 09:51:15;;;;;;;15.63;8.40;;;9.50;83.00;;;;;;6214064;23;20175;-79
2022/12/02 09:53:45;;;;;;;16.93;8.37;;;9.50;82.70;;;;;;6213585;23;20197;-78
2022/12/02 09:56:16;;;;;;;18.80;8.43;;;9.60;83.00;;;;;;6215358;23;20229;-77
2022/12/02 09:58:47;;;;;;;20.33;9.27;;;9.60;82.90;;;;;;6215627;23;20450;-78
2022/12/02 10:01:17;;;;;;;17.13;8.80;;;9.60;82.50;;;;;;6215758;23;20166;-79
2022/12/02 10:03:48;;;;;;;17.13;9.20;;;9.70;82.70;;;;;;6214340;23;20172;-78
2022/12/02 10:06:20;;;;;;;18.17;9.00;;;9.70;82.50;;;;;;6215413;23;20167;-79
2022/12/02 10:08:48;;;;;;;19.27;9.33;;;9.70;82.70;;;;;;6214228;23;20233;-79
2022/12/02 10:11:22;;;;;;;22.97;9.40;;;9.80;82.80;;;;;;6215644;23;20624;-79
2022/12/02 10:13:51;;;;;;;17.83;9.00;;;9.80;82.80;;;;;;6214765;23;20159;-79
2022/12/02 10:16:21;;;;;;;23.63;8.80;;;9.80;82.40;;;;;;6212858;23;20175;-78
2022/12/02 10:18:50;;;;;;;16.07;8.47;;;9.80;82.20;;;;;;6215128;23;20167;-79
2022/12/02 10:21:18;;;;;;;18.37;8.53;;;9.90;82.10;;;;;;6212073;23;20175;-78
2022/12/02 10:23:56;;;;;;;16.97;8.17;;;9.90;82.00;;;;;;6212576;23;20179;-78
2022/12/02 10:26:24;;;;;;;15.83;8.20;;;9.90;82.10;;;;;;6213019;23;20574;-77
2022/12/02 10:29:05;;;;;;;14.23;8.03;;;9.90;82.20;;;;;;6214626;23;20227;-76
2022/12/02 10:31:35;;;;;;;18.10;8.23;;;9.90;82.20;;;;;;6213233;23;20159;-76
2022/12/02 10:34:05;;;;;;;17.40;7.37;;;10.00;82.20;;;;;;6213098;23;20274;-78
2022/12/02 10:36:35;;;;;;;16.50;7.70;;;10.00;81.90;;;;;;6214080;23;20160;-78
2022/12/02 10:39:26;;;;;;;19.80;8.90;;;10.00;81.70;;;;;;6215131;23;20172;-77
2022/12/02 10:42:20;;;;;;;19.50;8.37;;;10.00;81.30;;;;;;6211793;23;20159;-78
2022/12/02 10:45:19;;;;;;;15.27;7.97;;;10.00;81.40;;;;;;6212784;23;20225;-77
2022/12/02 10:47:50;;;;;;;16.13;8.40;;;10.10;81.60;;;;;;6213108;23;20237;-80
2022/12/02 10:50:22;;;;;;;16.73;8.17;;;10.10;81.70;;;;;;6212962;23;20155;-77
2022/12/02 10:52:52;;;;;;;17.33;7.50;;;10.20;80.90;;;;;;6214822;23;20588;-75
2022/12/02 10:55:22;;;;;;;17.90;7.83;;;10.20;80.60;;;;;;6209312;23;20479;-77
2022/12/02 10:57:51;;;;;;;17.23;7.33;;;10.30;79.90;;;;;;6213630;23;20507;-76
2022/12/02 11:00:22;;;;;;;18.07;6.60;;;10.30;78.90;;;;;;6211922;23;20258;-77
2022/12/02 11:02:55;;;;;;;17.27;7.57;;;10.30;79.40;;;;;;6213461;23;20160;-78
2022/12/02 11:05:26;;;;;;;13.07;6.73;;;10.30;79.10;;;;;;6208992;23;20222;-79
2022/12/02 11:07:57;;;;;;;14.77;6.50;;;10.40;79.50;;;;;;6209861;23;20180;-78
2022/12/02 11:10:28;;;;;;;14.53;7.27;;;10.40;79.80;;;;;;6214062;23;20523;-78
2022/12/02 11:13:05;;;;;;;17.27;8.40;;;10.50;79.60;;;;;;6212112;23;20171;-77
2022/12/02 11:15:36;;;;;;;18.00;7.70;;;10.50;79.50;;;;;;6212553;23;20213;-77
2022/12/02 11:18:07;;;;;;;17.80;8.43;;;10.50;79.60;;;;;;6216037;23;20611;-77
2022/12/02 11:20:42;;;;;;;17.80;7.10;;;10.50;78.90;;;;;;6214656;23;20160;-78
2022/12/02 11:23:22;;;;;;;15.30;6.33;;;10.50;79.30;;;;;;6215740;23;20502;-80
2022/12/02 11:26:06;;;;;;;16.37;7.03;;;10.60;79.60;;;;;;6213729;23;20250;-79
2022/12/02 11:28:44;;;;;;;14.23;7.13;;;10.60;79.30;;;;;;6214402;23;20237;-77
2022/12/02 11:31:22;;;;;;;15.73;6.83;;;10.60;79.00;;;;;;6214481;23;20283;-80
2022/12/02 11:34:26;;;;;;;16.93;7.40;;;10.60;78.20;;;;;;6215496;23;20164;-78
2022/12/02 11:37:32;;;;;;;15.43;7.80;;;10.60;78.40;;;;;;6215369;23;20674;-78
2022/12/02 11:40:04;;;;;;;12.00;5.87;;;10.60;78.60;;;;;;6213858;23;20647;-77
2022/12/02 11:42:33;;;;;;;15.93;6.93;;;10.60;78.90;;;;;;6213259;23;20160;-78
2022/12/02 11:45:13;;;;;;;15.83;7.13;;;10.60;78.80;;;;;;6210439;23;20171;-78
2022/12/02 11:47:43;;;;;;;16.00;7.37;;;10.60;78.70;;;;;;6214579;23;20234;-78
2022/12/02 11:50:26;;;;;;;14.07;7.40;;;10.60;78.90;;;;;;6214542;23;20179;-77
2022/12/02 11:52:59;;;;;;;19.37;7.20;;;10.60;78.70;;;;;;6211754;23;20159;-78
2022/12/02 11:55:34;;;;;;;16.53;7.37;;;10.60;78.30;;;;;;6214110;23;20167;-77
2022/12/02 11:58:04;;;;;;;15.77;7.40;;;10.60;78.30;;;;;;6209844;23;20159;-78
2022/12/02 12:00:33;;;;;;;16.50;7.07;;;10.60;78.20;;;;;;6209006;23;20278;-77
2022/12/02 12:03:14;;;;;;;14.07;6.97;;;10.60;78.20;;;;;;6213253;23;20239;-78
2022/12/02 12:06:05;;;;;;;16.90;7.00;;;10.60;78.20;;;;;;6212427;23;20189;-79
2022/12/02 12:08:34;;;;;;;14.53;7.40;;;10.70;78.20;;;;;;6213670;23;20640;-78
2022/12/02 12:11:22;;;;;;;14.47;7.00;;;10.70;78.30;;;;;;6211522;23;20224;-77
2022/12/02 12:14:03;;;;;;;15.47;6.80;;;10.70;78.20;;;;;;6212265;23;20167;-78
2022/12/02 12:16:33;;;;;;;14.03;7.03;;;10.70;77.90;;;;;;6213618;23;20592;-79
2022/12/02 12:19:03;;;;;;;13.10;6.87;;;10.70;78.10;;;;;;6213776;23;20179;-78
2022/12/02 12:21:44;;;;;;;12.93;6.10;;;10.70;77.90;;;;;;6212618;23;20148;-79
2022/12/02 12:24:34;;;;;;;14.17;6.73;;;10.60;77.60;;;;;;6214167;23;20163;-79
2022/12/02 12:27:31;;;;;;;11.23;6.10;;;10.70;78.00;;;;;;6209233;23;20159;-79
2022/12/02 12:30:00;;;;;;;14.63;7.40;;;10.70;78.00;;;;;;6212540;23;20237;-79
2022/12/02 12:32:29;;;;;;;15.30;6.60;;;10.60;77.90;;;;;;6210775;23;20512;-79
2022/12/02 12:34:57;;;;;;;15.03;6.43;;;10.60;78.20;;;;;;6213542;23;20229;-78
2022/12/02 12:37:27;;;;;;;14.40;7.23;;;10.60;78.20;;;;;;6212510;23;20809;-78
2022/12/02 12:39:55;;;;;;;15.30;6.83;;;10.60;78.20;;;;;;6213773;23;20174;-78
2022/12/02 12:42:23;;;;;;;11.77;6.90;;;10.50;78.20;;;;;;6212967;23;20281;-77
2022/12/02 12:45:04;;;;;;;14.30;6.77;;;10.50;78.10;;;;;;6211441;23;20179;-81
2022/12/02 12:47:32;;;;;;;12.83;6.13;;;10.50;77.70;;;;;;6211883;23;20217;-80
2022/12/02 12:50:01;;;;;;;13.73;6.73;;;10.40;78.00;;;;;;6213422;23;20202;-80
2022/12/02 12:52:31;;;;;;;14.53;7.20;;;10.40;78.20;;;;;;6211543;23;20179;-78
2022/12/02 12:54:59;;;;;;;12.30;6.27;;;10.30;78.40;;;;;;6211031;23;20239;-77
2022/12/02 12:57:29;;;;;;;13.97;6.63;;;10.30;78.60;;;;;;6210226;23;20213;-79
2022/12/02 12:59:58;;;;;;;16.40;6.90;;;10.30;78.10;;;;;;6212613;23;20222;-78
2022/12/02 13:02:26;;;;;;;14.00;6.37;;;10.30;78.50;;;;;;6211497;23;20171;-78
2022/12/02 13:04:56;;;;;;;11.57;6.43;;;10.30;78.50;;;;;;6213671;23;20175;-77
2022/12/02 13:07:24;;;;;;;13.33;6.97;;;10.30;78.70;;;;;;6213127;23;20640;-77
2022/12/02 13:09:54;;;;;;;11.80;6.57;;;10.30;78.80;;;;;;6212914;23;20277;-77